This is the latest recevied weather packets stored in our database for station/object YN8O-13. If no packets are shown the sender has not sent any weather packets the latest 10 day(s).
| Time | Temp. | Humidity | Pressure | Rain* | Wind** | Luminosity | Snow |
|---|---|---|---|---|---|---|---|
| 1777745436 | 30.56° C | 40% | 1010 hPa | 0 mm | - | - | - |
| 1777744836 | 30.56° C | 40% | 1010 hPa | 0 mm | - | - | - |
| 1777744236 | 30.56° C | 40% | 1010 hPa | 0 mm | - | - | - |
| 1777743635 | 30° C | 40% | 1010 hPa | 0 mm | - | - | - |
| 1777743035 | 30° C | 42% | 1011 hPa | 0 mm | - | - | - |
| 1777742434 | 30° C | 46% | 1012 hPa | 0 mm | - | - | - |
| 1777741834 | 30° C | 45% | 1012 hPa | 0 mm | - | - | - |
| 1777741234 | 30° C | 44% | 1012 hPa | 0 mm | - | - | - |
| 1777740634 | 30° C | 44% | 1012 hPa | 0 mm | - | - | - |
| 1777740033 | 30° C | 47% | 1012 hPa | 0 mm | - | - | - |
| 1777739433 | 28.89° C | 53% | 1013 hPa | 0 mm | - | - | - |
| 1777738832 | 28.89° C | 53% | 1013 hPa | 0 mm | - | - | - |
| 1777738232 | 28.33° C | 53% | 1013 hPa | 0 mm | - | - | - |
| 1777737631 | 28.33° C | 53% | 1013 hPa | 0 mm | - | - | - |
| 1777737031 | 28.33° C | 53% | 1013 hPa | 0 mm | - | - | - |
| 1777736431 | 27.22° C | 58% | 1013 hPa | 0 mm | - | - | - |
| 1777735830 | 27.22° C | 58% | 1013 hPa | 0 mm | - | - | - |
| 1777735230 | 27.22° C | 58% | 1013 hPa | 0 mm | - | - | - |
| 1777734630 | 26.67° C | 58% | 1013 hPa | 0 mm | - | - | - |
| 1777734029 | 26.67° C | 58% | 1013 hPa | 0 mm | - | - | - |
| 1777733429 | 26.67° C | 58% | 1013 hPa | 0 mm | - | - | - |
| 1777732829 | 26.67° C | 60% | 1013 hPa | 0 mm | - | - | - |
| 1777732228 | 25° C | 66% | 1013 hPa | 0 mm | - | - | - |
| 1777731628 | 25° C | 66% | 1013 hPa | 0 mm | - | - | - |
| 1777731027 | 24.44° C | 66% | 1013 hPa | 0 mm | - | - | - |
* Rain latest hour (hover to see other rain measurements)
** Current wind speed in m/s (hover to see current wind gust speed)